createdAt,value
2018-09-27T00:01:38.022Z,85.50
2018-09-27T00:04:07.751Z,85.40
2018-09-27T00:06:37.498Z,86.00
2018-09-27T00:09:07.742Z,86.20
2018-09-27T00:11:37.498Z,85.80
2018-09-27T00:14:07.207Z,86.10
2018-09-27T00:16:36.903Z,86.40
2018-09-27T00:19:06.638Z,86.10
2018-09-27T00:21:36.576Z,86.70
2018-09-27T00:24:06.379Z,86.70
2018-09-27T00:26:36.035Z,86.30
2018-09-27T00:29:06.086Z,86.70
2018-09-27T00:31:35.775Z,87.20
2018-09-27T00:34:05.509Z,86.60
2018-09-27T00:36:35.183Z,86.80
2018-09-27T00:39:07.707Z,86.40
2018-09-27T00:41:37.390Z,86.20
2018-09-27T00:44:07.474Z,86.70
2018-09-27T00:46:37.146Z,86.70
2018-09-27T00:49:06.846Z,87.20
2018-09-27T00:51:36.590Z,88.10
2018-09-27T00:54:07.000Z,88.40
2018-09-27T00:56:36.711Z,88.10
2018-09-27T00:59:06.413Z,88.10
2018-09-27T01:01:36.074Z,88.00
2018-09-27T01:04:05.755Z,88.00
2018-09-27T01:06:35.419Z,88.00
2018-09-27T01:09:07.406Z,87.80
2018-09-27T01:11:37.055Z,87.70
2018-09-27T01:14:06.759Z,87.30
2018-09-27T01:16:36.438Z,87.20
2018-09-27T01:19:06.803Z,87.20
2018-09-27T01:21:36.454Z,88.20
2018-09-27T01:24:06.151Z,88.60
2018-09-27T01:26:35.817Z,88.10
2018-09-27T01:29:05.881Z,87.80
2018-09-27T01:31:35.550Z,87.90
2018-09-27T01:34:05.312Z,87.70
2018-09-27T01:36:34.963Z,87.70
2018-09-27T01:39:05.553Z,88.10
2018-09-27T01:41:35.334Z,88.20
2018-09-27T01:44:05.147Z,88.40
2018-09-27T01:46:34.807Z,88.00
2018-09-27T01:49:04.527Z,87.30
2018-09-27T01:51:34.159Z,87.30
2018-09-27T01:54:03.870Z,88.70
2018-09-27T01:56:33.547Z,88.00
2018-09-27T01:59:03.503Z,88.60
2018-09-27T02:01:33.161Z,88.90
2018-09-27T02:04:02.866Z,89.00
2018-09-27T02:06:32.522Z,88.90
2018-09-27T02:09:02.753Z,88.50
2018-09-27T02:11:33.333Z,88.80
2018-09-27T02:14:04.163Z,88.80
2018-09-27T02:16:35.211Z,89.00
2018-09-27T02:19:05.786Z,88.70
2018-09-27T02:21:35.434Z,89.40
2018-09-27T02:24:05.087Z,89.40
2018-09-27T02:26:34.740Z,89.60
2018-09-27T02:29:04.422Z,89.70
2018-09-27T02:31:34.067Z,89.90
2018-09-27T02:34:03.735Z,89.80
2018-09-27T02:36:33.484Z,90.00
2018-09-27T02:39:03.951Z,90.40
2018-09-27T02:41:33.595Z,90.50
2018-09-27T02:44:03.251Z,90.20
2018-09-27T02:46:32.904Z,89.70
2018-09-27T02:49:02.775Z,90.00
2018-09-27T02:51:32.779Z,89.90
2018-09-27T02:54:02.420Z,90.40
2018-09-27T02:56:32.098Z,90.30
2018-09-27T02:59:01.763Z,90.30
2018-09-27T03:01:31.436Z,90.30
2018-09-27T03:04:01.436Z,89.60
2018-09-27T03:06:31.139Z,89.90
2018-09-27T03:09:00.786Z,89.90
2018-09-27T03:11:30.455Z,90.30
2018-09-27T03:14:00.243Z,90.60
2018-09-27T03:16:30.015Z,90.50
2018-09-27T03:18:59.667Z,90.40
2018-09-27T03:21:29.378Z,90.60
2018-09-27T03:23:59.037Z,90.70
2018-09-27T03:26:28.679Z,91.00
2018-09-27T03:28:58.322Z,90.70
2018-09-27T03:31:28.013Z,90.90
2018-09-27T03:33:57.691Z,91.20
2018-09-27T03:36:27.390Z,91.60
2018-09-27T03:38:57.075Z,91.90
2018-09-27T03:41:26.850Z,91.90
2018-09-27T03:43:56.539Z,92.10
2018-09-27T03:46:26.256Z,91.90
2018-09-27T03:48:55.911Z,92.00
2018-09-27T03:51:25.607Z,91.80
2018-09-27T03:53:55.278Z,91.40
2018-09-27T03:56:24.947Z,91.30
2018-09-27T03:58:54.607Z,91.40
2018-09-27T04:01:24.305Z,91.50
2018-09-27T04:03:53.956Z,92.00
2018-09-27T04:06:23.683Z,92.00
2018-09-27T04:08:53.460Z,92.10
2018-09-27T04:11:23.180Z,91.90
2018-09-27T04:13:52.869Z,91.60
2018-09-27T04:16:22.562Z,91.70
2018-09-27T04:18:52.582Z,91.50
2018-09-27T04:21:22.343Z,91.50
2018-09-27T04:23:52.015Z,91.70
2018-09-27T04:26:21.675Z,91.60
2018-09-27T04:28:51.343Z,91.80
2018-09-27T04:31:20.997Z,91.60
2018-09-27T04:33:50.711Z,91.40
2018-09-27T04:36:20.530Z,91.50
2018-09-27T04:38:50.191Z,91.30
2018-09-27T04:41:19.931Z,92.00
2018-09-27T04:43:49.606Z,91.90
2018-09-27T04:46:19.327Z,91.50
2018-09-27T04:48:48.970Z,91.10
2018-09-27T04:51:18.655Z,91.00
2018-09-27T04:53:48.318Z,90.70
2018-09-27T04:56:17.998Z,91.10
2018-09-27T04:58:47.646Z,91.00
2018-09-27T05:01:17.380Z,91.50
2018-09-27T05:03:47.421Z,91.40
2018-09-27T05:06:17.347Z,91.20
2018-09-27T05:08:47.235Z,91.20
2018-09-27T05:11:17.059Z,91.60
2018-09-27T05:13:46.735Z,91.70
2018-09-27T05:16:16.387Z,91.70
2018-09-27T05:18:46.375Z,91.80
2018-09-27T05:21:16.030Z,91.60
2018-09-27T05:23:51.726Z,91.40
2018-09-27T05:26:21.383Z,91.80
2018-09-27T05:28:51.188Z,91.80
2018-09-27T05:31:20.842Z,91.80
2018-09-27T05:33:50.556Z,91.60
2018-09-27T05:36:20.211Z,91.50
2018-09-27T05:38:49.892Z,91.40
2018-09-27T05:41:19.555Z,91.90
2018-09-27T05:43:49.206Z,91.90
2018-09-27T05:46:18.884Z,91.50
2018-09-27T05:48:48.545Z,91.70
2018-09-27T05:51:18.194Z,91.80
2018-09-27T05:53:47.848Z,91.70
2018-09-27T05:56:17.515Z,91.90
2018-09-27T05:58:47.175Z,92.10
2018-09-27T06:01:16.859Z,91.90
2018-09-27T06:03:46.533Z,91.90
2018-09-27T06:06:16.187Z,91.80
2018-09-27T06:08:45.863Z,92.00
2018-09-27T06:11:15.551Z,92.00
2018-09-27T06:13:45.420Z,92.30
2018-09-27T06:16:15.155Z,92.60
2018-09-27T06:18:44.811Z,92.90
2018-09-27T06:21:14.483Z,92.40
2018-09-27T06:23:44.166Z,92.00
2018-09-27T06:26:13.850Z,91.60
2018-09-27T06:28:43.707Z,91.60
2018-09-27T06:31:13.380Z,91.40
2018-09-27T06:33:43.216Z,91.30
2018-09-27T06:36:13.024Z,91.40
2018-09-27T06:38:42.899Z,91.70
2018-09-27T06:41:12.683Z,91.90
2018-09-27T06:43:42.364Z,91.70
2018-09-27T06:46:12.026Z,91.50
2018-09-27T06:48:41.773Z,91.00
2018-09-27T06:51:11.656Z,90.70
2018-09-27T06:53:41.396Z,90.60
2018-09-27T06:56:11.159Z,90.90
2018-09-27T06:58:40.995Z,90.80
2018-09-27T07:01:10.679Z,91.20
2018-09-27T07:03:40.367Z,91.50
2018-09-27T07:06:10.026Z,91.80
2018-09-27T07:08:39.725Z,91.90
2018-09-27T07:11:09.586Z,91.60
2018-09-27T07:13:39.291Z,91.10
2018-09-27T07:16:08.943Z,91.30
2018-09-27T07:18:38.655Z,91.30
2018-09-27T07:21:08.519Z,91.10
2018-09-27T07:23:38.470Z,91.20
2018-09-27T07:26:08.142Z,91.60
2018-09-27T07:28:37.841Z,91.60
2018-09-27T07:31:07.791Z,91.80
2018-09-27T07:33:37.644Z,91.70
2018-09-27T07:36:07.338Z,91.80
2018-09-27T07:38:37.420Z,91.70
2018-09-27T07:41:07.295Z,91.60
2018-09-27T07:43:37.011Z,91.40
2018-09-27T07:46:07.095Z,91.80
2018-09-27T07:48:36.823Z,91.90
2018-09-27T07:51:06.659Z,91.60
2018-09-27T07:53:36.368Z,91.70
2018-09-27T07:56:06.031Z,91.70
2018-09-27T07:58:35.730Z,91.50
2018-09-27T08:01:05.435Z,91.60
2018-09-27T08:03:35.100Z,91.50
2018-09-27T08:06:04.781Z,91.60
2018-09-27T08:08:34.495Z,91.80
2018-09-27T08:11:04.657Z,91.70
2018-09-27T08:13:34.534Z,91.10
2018-09-27T08:16:05.589Z,90.90
2018-09-27T08:18:35.595Z,90.60
2018-09-27T08:21:05.652Z,90.70
2018-09-27T08:23:35.571Z,90.40
2018-09-27T08:26:05.259Z,90.30
2018-09-27T08:28:34.909Z,90.50
2018-09-27T08:31:04.663Z,89.90
2018-09-27T08:33:34.484Z,89.40
2018-09-27T08:36:04.190Z,87.50
2018-09-27T08:38:33.883Z,86.60
2018-09-27T08:41:03.772Z,86.90
2018-09-27T08:43:33.459Z,86.60
2018-09-27T08:46:03.131Z,87.10
2018-09-27T08:48:32.805Z,86.80
2018-09-27T08:51:02.551Z,86.70
2018-09-27T08:53:32.234Z,87.10
2018-09-27T08:56:01.946Z,87.40
2018-09-27T08:58:31.800Z,87.70
2018-09-27T09:01:01.583Z,87.80
2018-09-27T09:03:31.301Z,88.40
2018-09-27T09:06:01.224Z,87.90
2018-09-27T09:08:30.900Z,87.70
2018-09-27T09:11:00.582Z,86.60
2018-09-27T09:13:30.322Z,86.50
2018-09-27T09:16:00.155Z,85.90
2018-09-27T09:18:29.811Z,85.70
2018-09-27T09:20:59.471Z,85.70
2018-09-27T09:23:29.127Z,86.20
2018-09-27T09:25:58.855Z,86.70
2018-09-27T09:28:28.664Z,86.20
2018-09-27T09:30:58.378Z,85.40
2018-09-27T09:33:28.105Z,85.70
2018-09-27T09:35:57.978Z,84.70
2018-09-27T09:38:28.122Z,85.00
2018-09-27T09:40:57.862Z,84.30
2018-09-27T09:43:27.514Z,85.40
2018-09-27T09:45:57.211Z,85.50
2018-09-27T09:48:26.876Z,83.80
2018-09-27T09:50:56.546Z,83.90
2018-09-27T09:53:26.199Z,84.30
2018-09-27T09:55:57.029Z,85.40
2018-09-27T09:58:27.077Z,85.70
2018-09-27T10:00:56.747Z,84.50
2018-09-27T10:03:26.400Z,84.80
2018-09-27T10:05:56.087Z,86.30
2018-09-27T10:08:25.735Z,85.00
2018-09-27T10:10:55.403Z,83.30
2018-09-27T10:13:25.090Z,81.60
2018-09-27T10:15:54.792Z,81.40
2018-09-27T10:18:24.450Z,80.90
2018-09-27T10:20:54.120Z,79.20
2018-09-27T10:23:23.803Z,78.20
2018-09-27T10:25:53.519Z,78.30
2018-09-27T10:28:23.215Z,79.10
2018-09-27T10:30:52.900Z,77.90
2018-09-27T10:33:22.678Z,78.30
2018-09-27T10:35:52.783Z,78.60
2018-09-27T10:38:22.483Z,77.50
2018-09-27T10:40:52.402Z,78.70
2018-09-27T10:43:22.115Z,78.20
2018-09-27T10:45:51.840Z,78.80
2018-09-27T10:48:21.539Z,79.40
2018-09-27T10:50:51.319Z,77.40
2018-09-27T10:53:21.023Z,77.80
2018-09-27T10:55:50.771Z,77.90
2018-09-27T10:58:20.473Z,76.40
2018-09-27T11:00:50.260Z,73.20
2018-09-27T11:03:20.129Z,74.10
2018-09-27T11:05:53.197Z,73.80
2018-09-27T11:08:25.994Z,74.80
2018-09-27T11:10:55.890Z,75.30
2018-09-27T11:13:25.807Z,75.60
2018-09-27T11:15:55.462Z,74.10
2018-09-27T11:18:25.163Z,72.80
2018-09-27T11:20:54.854Z,71.70
2018-09-27T11:23:24.522Z,72.30
2018-09-27T11:25:54.171Z,69.70
2018-09-27T11:28:23.914Z,65.70
2018-09-27T11:30:58.935Z,68.00
2018-09-27T11:33:29.967Z,68.30
2018-09-27T11:35:59.851Z,68.00
2018-09-27T11:38:29.564Z,67.60
2018-09-27T11:40:59.403Z,69.10
2018-09-27T11:43:29.287Z,68.20
2018-09-27T11:46:00.413Z,68.50
2018-09-27T11:48:30.159Z,68.70
2018-09-27T11:50:59.891Z,68.10
2018-09-27T11:53:29.567Z,67.70
2018-09-27T11:55:59.979Z,67.70
2018-09-27T11:58:29.839Z,67.40
2018-09-27T12:01:00.141Z,67.60
2018-09-27T12:03:30.324Z,66.20
2018-09-27T12:06:00.046Z,66.60
2018-09-27T12:08:29.871Z,67.80
2018-09-27T12:13:48.774Z,65.80
2018-09-27T12:16:20.527Z,65.90
2018-09-27T12:18:50.222Z,65.30
2018-09-27T12:21:19.899Z,63.70
2018-09-27T12:23:49.599Z,62.90
2018-09-27T12:26:19.262Z,63.80
2018-09-27T12:28:48.946Z,64.60
2018-09-27T12:31:18.608Z,61.20
2018-09-27T12:33:48.319Z,60.70
2018-09-27T12:36:17.980Z,63.30
2018-09-27T12:38:47.788Z,62.20
2018-09-27T12:41:17.579Z,61.00
2018-09-27T12:43:47.296Z,61.70
2018-09-27T12:46:16.950Z,61.60
2018-09-27T12:48:46.994Z,62.50
2018-09-27T12:51:16.928Z,60.30
2018-09-27T12:53:46.687Z,62.20
2018-09-27T12:56:16.355Z,58.60
2018-09-27T12:58:46.159Z,58.10
2018-09-27T13:01:15.951Z,57.80
2018-09-27T13:03:45.681Z,59.90
2018-09-27T13:06:15.836Z,59.00
2018-09-27T13:08:45.613Z,56.50
2018-09-27T13:11:15.409Z,59.30
2018-09-27T13:13:45.107Z,57.60
2018-09-27T13:16:14.774Z,55.50
2018-09-27T13:18:44.478Z,52.90
2018-09-27T13:21:14.144Z,52.90
2018-09-27T13:23:43.843Z,53.40
2018-09-27T13:26:13.534Z,52.10
2018-09-27T13:28:43.277Z,52.50
2018-09-27T13:31:13.111Z,54.50
2018-09-27T13:33:42.794Z,55.70
2018-09-27T13:36:12.544Z,55.20
2018-09-27T13:38:42.343Z,56.60
2018-09-27T13:41:12.323Z,53.90
2018-09-27T13:43:42.002Z,51.40
2018-09-27T13:46:11.672Z,53.30
2018-09-27T13:48:41.367Z,52.00
2018-09-27T13:51:11.192Z,53.40
2018-09-27T13:53:40.984Z,54.00
2018-09-27T13:56:10.652Z,56.40
2018-09-27T13:58:40.331Z,54.40
2018-09-27T14:01:10.151Z,56.70
2018-09-27T14:03:39.962Z,56.90
2018-09-27T14:06:09.648Z,57.00
2018-09-27T14:08:39.306Z,54.40
2018-09-27T14:11:08.986Z,53.40
2018-09-27T14:13:38.655Z,53.20
2018-09-27T14:16:08.398Z,52.20
2018-09-27T14:18:38.035Z,51.50
2018-09-27T14:21:07.710Z,51.40
2018-09-27T14:23:37.611Z,51.50
2018-09-27T14:26:07.718Z,51.90
2018-09-27T14:28:37.370Z,51.90
2018-09-27T14:31:07.405Z,53.40
2018-09-27T14:33:37.055Z,52.60
2018-09-27T14:36:06.967Z,53.10
2018-09-27T14:38:36.623Z,51.90
2018-09-27T14:41:06.400Z,51.30
2018-09-27T14:43:36.195Z,52.80
2018-09-27T14:46:06.026Z,53.10
2018-09-27T14:48:35.707Z,52.30
2018-09-27T14:51:05.773Z,52.80
2018-09-27T14:53:35.629Z,52.70
2018-09-27T14:56:05.530Z,53.40
2018-09-27T14:58:35.244Z,51.70
2018-09-27T15:01:05.466Z,53.80
2018-09-27T15:03:35.451Z,52.20
2018-09-27T15:06:05.456Z,52.00
2018-09-27T15:08:35.215Z,51.80
2018-09-27T15:11:05.292Z,51.20
2018-09-27T15:13:35.283Z,50.90
2018-09-27T15:16:05.015Z,50.60
2018-09-27T15:18:34.711Z,50.60
2018-09-27T15:21:04.745Z,50.50
2018-09-27T15:23:34.805Z,52.20
2018-09-27T15:26:04.742Z,50.40
2018-09-27T15:28:34.450Z,51.00
2018-09-27T15:31:04.926Z,53.00
2018-09-27T15:33:34.831Z,51.50
2018-09-27T15:36:05.257Z,52.20
2018-09-27T15:38:35.282Z,51.60
2018-09-27T15:41:10.927Z,52.80
2018-09-27T15:43:40.926Z,54.50
2018-09-27T15:46:10.662Z,54.40
2018-09-27T15:48:40.738Z,53.80
2018-09-27T15:51:10.633Z,52.30
2018-09-27T15:53:40.743Z,54.00
2018-09-27T15:56:10.971Z,52.60
2018-09-27T15:58:40.785Z,53.90
2018-09-27T16:01:11.144Z,53.60
2018-09-27T16:03:41.758Z,53.30
2018-09-27T16:06:12.465Z,53.20
2018-09-27T16:08:42.243Z,53.30
2018-09-27T16:11:12.729Z,54.70
2018-09-27T16:13:42.615Z,54.10
2018-09-27T16:16:12.335Z,54.10
2018-09-27T16:18:42.172Z,54.70
2018-09-27T16:21:11.923Z,55.00
2018-09-27T16:23:42.051Z,55.10
2018-09-27T16:26:12.024Z,58.80
2018-09-27T16:28:42.045Z,61.20
2018-09-27T16:31:11.784Z,62.20
2018-09-27T16:33:41.547Z,63.20
2018-09-27T16:36:11.283Z,63.50
2018-09-27T16:38:41.667Z,63.70
2018-09-27T16:41:11.969Z,63.40
2018-09-27T16:43:42.041Z,64.00
2018-09-27T16:46:11.795Z,64.80
2018-09-27T16:48:42.445Z,64.90
2018-09-27T16:51:12.352Z,65.80
2018-09-27T16:53:42.283Z,65.80
2018-09-27T16:56:12.499Z,65.70
2018-09-27T16:58:42.259Z,65.50
2018-09-27T17:01:12.288Z,64.50
2018-09-27T17:03:42.051Z,63.90
2018-09-27T17:06:12.181Z,64.10
2018-09-27T17:08:41.922Z,64.60
2018-09-27T17:11:12.939Z,63.90
2018-09-27T17:13:43.379Z,64.50
2018-09-27T17:16:13.152Z,64.70
2018-09-27T17:18:43.170Z,63.50
2018-09-27T17:21:13.106Z,64.70
2018-09-27T17:23:43.380Z,64.70
2018-09-27T17:26:13.602Z,64.00
2018-09-27T17:28:43.674Z,63.90
2018-09-27T17:31:13.900Z,64.90
2018-09-27T17:33:43.942Z,64.80
2018-09-27T17:36:15.031Z,65.20
2018-09-27T17:38:44.794Z,65.50
2018-09-27T17:41:14.814Z,64.80
2018-09-27T17:43:44.633Z,64.20
2018-09-27T17:46:14.544Z,64.40
2018-09-27T17:48:44.780Z,64.40
2018-09-27T17:51:14.239Z,64.50
2018-09-27T17:53:44.343Z,64.30
2018-09-27T17:56:14.124Z,65.00
2018-09-27T17:58:44.007Z,64.80
2018-09-27T18:01:13.843Z,64.70
2018-09-27T18:03:43.647Z,65.30
2018-09-27T18:06:13.431Z,65.70
2018-09-27T18:08:43.182Z,65.20
2018-09-27T18:11:12.924Z,66.00
2018-09-27T18:13:42.771Z,66.10
2018-09-27T18:16:13.021Z,66.30
2018-09-27T18:18:42.778Z,66.30
2018-09-27T18:21:12.487Z,66.40
2018-09-27T18:23:42.611Z,66.60
2018-09-27T18:26:12.601Z,67.00
2018-09-27T18:28:42.687Z,68.20
2018-09-27T18:31:12.567Z,68.00
2018-09-27T18:33:42.491Z,68.60
2018-09-27T18:36:13.983Z,67.50
2018-09-27T18:38:46.215Z,67.60
2018-09-27T18:41:18.762Z,69.70
2018-09-27T18:43:48.559Z,68.40
2018-09-27T18:46:19.352Z,68.30
2018-09-27T18:48:49.099Z,69.10
2018-09-27T18:51:19.222Z,70.10
2018-09-27T18:53:49.782Z,68.50
2018-09-27T18:56:20.690Z,70.20
2018-09-27T18:58:50.779Z,69.80
2018-09-27T19:01:20.507Z,69.20
2018-09-27T19:03:50.531Z,69.30
2018-09-27T19:06:21.742Z,69.70
2018-09-27T19:08:52.938Z,68.90
2018-09-27T19:11:23.288Z,71.30
2018-09-27T19:13:53.153Z,71.30
2018-09-27T19:16:23.183Z,70.80
2018-09-27T19:18:53.221Z,71.90
2018-09-27T19:21:22.939Z,72.40
2018-09-27T19:23:52.701Z,72.00
2018-09-27T19:26:22.538Z,72.60
2018-09-27T19:28:52.928Z,72.40
2018-09-27T19:31:23.920Z,73.60
2018-09-27T19:33:53.904Z,73.50
2018-09-27T19:36:23.925Z,74.30
2018-09-27T19:38:53.945Z,74.40
2018-09-27T19:41:23.720Z,74.50
2018-09-27T19:43:54.333Z,73.30
2018-09-27T19:46:24.163Z,73.60
2018-09-27T19:48:54.080Z,73.40
2018-09-27T19:51:23.832Z,73.80
2018-09-27T19:53:53.543Z,74.40
2018-09-27T19:56:23.271Z,74.00
2018-09-27T19:58:53.308Z,74.50
2018-09-27T20:01:25.193Z,75.30
2018-09-27T20:03:55.305Z,75.50
2018-09-27T20:06:25.149Z,75.50
2018-09-27T20:08:55.633Z,74.70
2018-09-27T20:11:25.467Z,74.40
2018-09-27T20:13:56.123Z,74.40
2018-09-27T20:16:25.965Z,76.00
2018-09-27T20:18:56.227Z,77.10
2018-09-27T20:21:25.971Z,76.30
2018-09-27T20:23:55.682Z,76.00
2018-09-27T20:26:25.765Z,75.50
2018-09-27T20:28:55.629Z,75.70
2018-09-27T20:31:25.406Z,75.60
2018-09-27T20:33:55.235Z,75.10
2018-09-27T20:36:25.032Z,76.60
2018-09-27T20:38:55.035Z,77.20
2018-09-27T20:41:24.792Z,78.50
2018-09-27T20:43:54.503Z,78.00
2018-09-27T20:46:25.105Z,78.60
2018-09-27T20:48:55.002Z,79.00
2018-09-27T20:51:25.793Z,79.00
2018-09-27T20:53:55.601Z,79.00
2018-09-27T20:56:26.067Z,79.50
2018-09-27T20:58:55.995Z,79.90
2018-09-27T21:01:25.909Z,79.80
2018-09-27T21:03:56.371Z,79.80
2018-09-27T21:06:26.510Z,79.80
2018-09-27T21:08:56.671Z,79.40
2018-09-27T21:11:26.525Z,79.90
2018-09-27T21:13:56.267Z,80.60
2018-09-27T21:16:26.107Z,80.90
2018-09-27T21:18:56.012Z,81.30
2018-09-27T21:21:25.718Z,81.50
2018-09-27T21:23:56.268Z,82.20
2018-09-27T21:26:26.387Z,82.00
2018-09-27T21:28:56.210Z,82.00
2018-09-27T21:31:26.226Z,82.30
2018-09-27T21:33:56.287Z,82.50
2018-09-27T21:36:26.175Z,82.40
2018-09-27T21:38:55.919Z,81.90
2018-09-27T21:41:32.523Z,81.40
2018-09-27T21:44:02.301Z,81.50
2018-09-27T21:46:32.527Z,82.30
2018-09-27T21:49:02.419Z,81.70
2018-09-27T21:51:32.151Z,81.60
2018-09-27T21:54:01.866Z,81.90
2018-09-27T21:56:31.567Z,82.70
2018-09-27T21:59:01.275Z,82.30
2018-09-27T22:01:31.005Z,82.40
2018-09-27T22:04:00.708Z,82.50
2018-09-27T22:06:30.407Z,82.80
2018-09-27T22:09:00.099Z,82.70
2018-09-27T22:11:29.820Z,82.30
2018-09-27T22:13:59.503Z,82.60
2018-09-27T22:16:29.472Z,83.30
2018-09-27T22:18:59.190Z,84.30
2018-09-27T22:21:28.891Z,84.40
2018-09-27T22:23:58.558Z,84.10
2018-09-27T22:26:28.255Z,84.50
2018-09-27T22:28:57.915Z,84.00
2018-09-27T22:31:27.911Z,84.20
2018-09-27T22:33:57.625Z,84.00
2018-09-27T22:36:27.318Z,84.70
2018-09-27T22:38:56.999Z,84.80
2018-09-27T22:41:26.689Z,84.70
2018-09-27T22:43:56.371Z,85.50
2018-09-27T22:46:26.058Z,86.00
2018-09-27T22:48:55.790Z,85.80
2018-09-27T22:51:25.482Z,86.30
2018-09-27T22:53:55.172Z,86.10
2018-09-27T22:56:24.873Z,86.60
2018-09-27T22:58:54.550Z,86.40
2018-09-27T23:01:24.446Z,87.00
2018-09-27T23:03:54.437Z,86.50
2018-09-27T23:06:24.125Z,86.50
2018-09-27T23:08:53.825Z,86.50
2018-09-27T23:11:23.554Z,86.20
2018-09-27T23:13:53.267Z,86.40
2018-09-27T23:16:22.935Z,86.30
2018-09-27T23:18:52.626Z,87.10
2018-09-27T23:21:22.282Z,86.80
2018-09-27T23:50:37.754Z,89.00
2018-09-27T23:53:07.419Z,88.60
2018-09-27T23:55:37.106Z,88.80
2018-09-27T23:58:06.788Z,89.30
